Terminal Aerodrome Forecast
Issued by NWS Wilmington, OH

Home | Current Version | Previous Version | Text Only | Print | Product List | Glossary On
Versions: 1 2 3 4 5 6 7 8 9 10 11 12 13 14 15 16 17 18 19 20 21 22
000
FTUS41 KILN 192300
TAFDAY
TAF
KDAY 192320Z 2000/2024 VRB03KT 6SM HZ OVC020
     FM200700 00000KT 4SM BR OVC015
      TEMPO 2009/2013 2SM BR
     FM201500 VRB03KT P6SM OVC022=

USA.gov is the U.S. government's official web portal to all federal, state and local government web resources and services.